sensor_id;sensor_type;location;lat;lon;timestamp;P1;durP1;ratioP1;P2;durP2;ratioP2
9178;SDS011;4624;48.126;11.546;2022-10-28T00:00:06;5.97;;;2.20;;
9178;SDS011;4624;48.126;11.546;2022-10-28T00:02:33;5.20;;;2.23;;
9178;SDS011;4624;48.126;11.546;2022-10-28T00:05:01;6.17;;;2.37;;
9178;SDS011;4624;48.126;11.546;2022-10-28T00:07:28;7.20;;;2.27;;
9178;SDS011;4624;48.126;11.546;2022-10-28T00:09:55;4.33;;;2.60;;
9178;SDS011;4624;48.126;11.546;2022-10-28T00:12:21;5.97;;;2.33;;
9178;SDS011;4624;48.126;11.546;2022-10-28T00:14:48;3.50;;;1.93;;
9178;SDS011;4624;48.126;11.546;2022-10-28T00:17:15;5.20;;;2.20;;
9178;SDS011;4624;48.126;11.546;2022-10-28T00:19:42;5.23;;;2.30;;
9178;SDS011;4624;48.126;11.546;2022-10-28T00:22:10;3.83;;;2.00;;
9178;SDS011;4624;48.126;11.546;2022-10-28T00:24:36;8.63;;;2.47;;
9178;SDS011;4624;48.126;11.546;2022-10-28T00:27:03;3.83;;;2.17;;
9178;SDS011;4624;48.126;11.546;2022-10-28T00:29:30;5.10;;;2.10;;
9178;SDS011;4624;48.126;11.546;2022-10-28T00:31:57;4.97;;;2.57;;
9178;SDS011;4624;48.126;11.546;2022-10-28T00:34:23;5.33;;;2.10;;
9178;SDS011;4624;48.126;11.546;2022-10-28T00:36:50;3.20;;;1.83;;
9178;SDS011;4624;48.126;11.546;2022-10-28T00:39:19;5.47;;;1.70;;
9178;SDS011;4624;48.126;11.546;2022-10-28T00:41:48;5.73;;;1.93;;
9178;SDS011;4624;48.126;11.546;2022-10-28T00:44:39;3.50;;;1.73;;
9178;SDS011;4624;48.126;11.546;2022-10-28T00:47:21;3.63;;;1.40;;
9178;SDS011;4624;48.126;11.546;2022-10-28T00:50:19;4.40;;;1.50;;
9178;SDS011;4624;48.126;11.546;2022-10-28T00:52:57;5.00;;;1.50;;
9178;SDS011;4624;48.126;11.546;2022-10-28T00:55:28;3.33;;;1.40;;
9178;SDS011;4624;48.126;11.546;2022-10-28T00:57:56;3.37;;;1.50;;
9178;SDS011;4624;48.126;11.546;2022-10-28T01:00:24;3.70;;;1.30;;
9178;SDS011;4624;48.126;11.546;2022-10-28T01:02:51;1.57;;;1.23;;
9178;SDS011;4624;48.126;11.546;2022-10-28T01:05:26;4.00;;;1.63;;
9178;SDS011;4624;48.126;11.546;2022-10-28T01:07:56;7.60;;;1.60;;
9178;SDS011;4624;48.126;11.546;2022-10-28T01:10:27;3.23;;;1.37;;
9178;SDS011;4624;48.126;11.546;2022-10-28T01:13:09;3.13;;;1.37;;
9178;SDS011;4624;48.126;11.546;2022-10-28T01:15:42;2.53;;;1.50;;
9178;SDS011;4624;48.126;11.546;2022-10-28T01:18:21;3.83;;;1.53;;
9178;SDS011;4624;48.126;11.546;2022-10-28T01:23:58;4.90;;;1.40;;
9178;SDS011;4624;48.126;11.546;2022-10-28T01:26:43;2.53;;;1.40;;
9178;SDS011;4624;48.126;11.546;2022-10-28T01:29:48;4.37;;;1.50;;
9178;SDS011;4624;48.126;11.546;2022-10-28T01:32:33;2.60;;;1.70;;
9178;SDS011;4624;48.126;11.546;2022-10-28T01:35:09;4.03;;;2.03;;
9178;SDS011;4624;48.126;11.546;2022-10-28T01:37:42;3.97;;;1.80;;
9178;SDS011;4624;48.126;11.546;2022-10-28T01:40:16;5.73;;;1.80;;
9178;SDS011;4624;48.126;11.546;2022-10-28T01:42:50;5.23;;;1.80;;
9178;SDS011;4624;48.126;11.546;2022-10-28T01:45:23;5.00;;;2.13;;
9178;SDS011;4624;48.126;11.546;2022-10-28T01:47:55;3.93;;;1.33;;
9178;SDS011;4624;48.126;11.546;2022-10-28T01:50:26;3.23;;;1.47;;
9178;SDS011;4624;48.126;11.546;2022-10-28T01:52:59;4.50;;;1.70;;
9178;SDS011;4624;48.126;11.546;2022-10-28T01:55:29;3.50;;;1.60;;
9178;SDS011;4624;48.126;11.546;2022-10-28T01:58:00;4.33;;;1.40;;
9178;SDS011;4624;48.126;11.546;2022-10-28T02:00:28;3.60;;;1.30;;
9178;SDS011;4624;48.126;11.546;2022-10-28T02:02:59;1.87;;;1.70;;
9178;SDS011;4624;48.126;11.546;2022-10-28T02:05:39;3.07;;;1.83;;
9178;SDS011;4624;48.126;11.546;2022-10-28T02:08:20;3.20;;;1.60;;
9178;SDS011;4624;48.126;11.546;2022-10-28T02:11:00;3.47;;;1.70;;
9178;SDS011;4624;48.126;11.546;2022-10-28T02:13:50;1.40;;;1.30;;
9178;SDS011;4624;48.126;11.546;2022-10-28T02:16:24;3.33;;;1.50;;
9178;SDS011;4624;48.126;11.546;2022-10-28T02:19:00;2.37;;;1.40;;
9178;SDS011;4624;48.126;11.546;2022-10-28T02:21:33;3.80;;;1.60;;
9178;SDS011;4624;48.126;11.546;2022-10-28T02:24:09;2.93;;;1.20;;
9178;SDS011;4624;48.126;11.546;2022-10-28T02:26:42;3.13;;;1.50;;
9178;SDS011;4624;48.126;11.546;2022-10-28T02:29:18;2.87;;;1.60;;
9178;SDS011;4624;48.126;11.546;2022-10-28T02:31:52;2.70;;;1.47;;
9178;SDS011;4624;48.126;11.546;2022-10-28T02:34:24;4.67;;;2.00;;
9178;SDS011;4624;48.126;11.546;2022-10-28T02:36:54;3.73;;;1.80;;
9178;SDS011;4624;48.126;11.546;2022-10-28T02:39:25;2.97;;;1.60;;
9178;SDS011;4624;48.126;11.546;2022-10-28T02:41:54;2.77;;;1.53;;
9178;SDS011;4624;48.126;11.546;2022-10-28T02:44:26;2.67;;;1.40;;
9178;SDS011;4624;48.126;11.546;2022-10-28T02:46:57;4.57;;;1.60;;
9178;SDS011;4624;48.126;11.546;2022-10-28T02:49:28;2.87;;;1.60;;
9178;SDS011;4624;48.126;11.546;2022-10-28T02:52:01;4.70;;;1.40;;
9178;SDS011;4624;48.126;11.546;2022-10-28T02:54:31;4.57;;;1.43;;
9178;SDS011;4624;48.126;11.546;2022-10-28T02:57:03;3.80;;;1.57;;
9178;SDS011;4624;48.126;11.546;2022-10-28T02:59:33;5.10;;;1.60;;
9178;SDS011;4624;48.126;11.546;2022-10-28T03:01:59;3.30;;;1.83;;
9178;SDS011;4624;48.126;11.546;2022-10-28T03:04:26;2.63;;;1.70;;
9178;SDS011;4624;48.126;11.546;2022-10-28T03:06:54;4.33;;;2.00;;
9178;SDS011;4624;48.126;11.546;2022-10-28T03:09:21;3.30;;;2.13;;
9178;SDS011;4624;48.126;11.546;2022-10-28T03:11:48;3.20;;;1.50;;
9178;SDS011;4624;48.126;11.546;2022-10-28T03:14:14;1.97;;;1.50;;
9178;SDS011;4624;48.126;11.546;2022-10-28T03:16:41;5.43;;;2.23;;
9178;SDS011;4624;48.126;11.546;2022-10-28T03:19:08;3.47;;;1.70;;
9178;SDS011;4624;48.126;11.546;2022-10-28T03:21:35;4.73;;;1.97;;
9178;SDS011;4624;48.126;11.546;2022-10-28T03:24:03;4.97;;;1.77;;
9178;SDS011;4624;48.126;11.546;2022-10-28T03:26:30;5.00;;;2.10;;
9178;SDS011;4624;48.126;11.546;2022-10-28T03:28:57;3.90;;;1.90;;
9178;SDS011;4624;48.126;11.546;2022-10-28T03:31:23;4.10;;;1.83;;
9178;SDS011;4624;48.126;11.546;2022-10-28T03:33:50;2.90;;;1.90;;
9178;SDS011;4624;48.126;11.546;2022-10-28T03:36:17;3.37;;;1.80;;
9178;SDS011;4624;48.126;11.546;2022-10-28T03:38:43;2.57;;;1.97;;
9178;SDS011;4624;48.126;11.546;2022-10-28T03:41:11;2.27;;;1.63;;
9178;SDS011;4624;48.126;11.546;2022-10-28T03:43:38;3.07;;;1.97;;
9178;SDS011;4624;48.126;11.546;2022-10-28T03:46:05;5.20;;;1.73;;
9178;SDS011;4624;48.126;11.546;2022-10-28T03:48:32;2.27;;;1.70;;
9178;SDS011;4624;48.126;11.546;2022-10-28T03:50:58;2.73;;;1.57;;
9178;SDS011;4624;48.126;11.546;2022-10-28T03:53:25;4.17;;;1.63;;
9178;SDS011;4624;48.126;11.546;2022-10-28T03:55:52;2.30;;;1.37;;
9178;SDS011;4624;48.126;11.546;2022-10-28T03:58:20;6.47;;;1.70;;
9178;SDS011;4624;48.126;11.546;2022-10-28T04:00:47;2.13;;;1.23;;
9178;SDS011;4624;48.126;11.546;2022-10-28T04:03:15;4.23;;;1.50;;
9178;SDS011;4624;48.126;11.546;2022-10-28T04:05:42;3.67;;;1.93;;
9178;SDS011;4624;48.126;11.546;2022-10-28T04:08:09;2.47;;;1.67;;
9178;SDS011;4624;48.126;11.546;2022-10-28T04:10:36;7.50;;;1.60;;
9178;SDS011;4624;48.126;11.546;2022-10-28T04:13:03;2.37;;;1.50;;
9178;SDS011;4624;48.126;11.546;2022-10-28T04:15:32;4.37;;;1.30;;
9178;SDS011;4624;48.126;11.546;2022-10-28T04:17:59;3.10;;;1.70;;
9178;SDS011;4624;48.126;11.546;2022-10-28T04:20:26;2.80;;;1.67;;
9178;SDS011;4624;48.126;11.546;2022-10-28T04:22:53;2.87;;;1.50;;
9178;SDS011;4624;48.126;11.546;2022-10-28T04:25:20;4.23;;;1.60;;
9178;SDS011;4624;48.126;11.546;2022-10-28T04:27:47;3.27;;;1.60;;
9178;SDS011;4624;48.126;11.546;2022-10-28T04:30:14;3.13;;;2.00;;
9178;SDS011;4624;48.126;11.546;2022-10-28T04:32:43;3.73;;;1.60;;
9178;SDS011;4624;48.126;11.546;2022-10-28T04:35:10;3.97;;;1.73;;
9178;SDS011;4624;48.126;11.546;2022-10-28T04:37:38;3.80;;;2.30;;
9178;SDS011;4624;48.126;11.546;2022-10-28T04:40:05;3.13;;;1.60;;
9178;SDS011;4624;48.126;11.546;2022-10-28T04:42:33;3.60;;;1.47;;
9178;SDS011;4624;48.126;11.546;2022-10-28T04:45:00;3.33;;;1.63;;
9178;SDS011;4624;48.126;11.546;2022-10-28T04:47:27;2.87;;;1.40;;
9178;SDS011;4624;48.126;11.546;2022-10-28T04:49:55;1.80;;;1.53;;
9178;SDS011;4624;48.126;11.546;2022-10-28T04:52:22;3.27;;;1.20;;
9178;SDS011;4624;48.126;11.546;2022-10-28T04:54:48;3.50;;;1.23;;
9178;SDS011;4624;48.126;11.546;2022-10-28T04:57:15;2.10;;;1.60;;
9178;SDS011;4624;48.126;11.546;2022-10-28T04:59:42;3.60;;;1.40;;
9178;SDS011;4624;48.126;11.546;2022-10-28T05:02:09;5.70;;;1.80;;
9178;SDS011;4624;48.126;11.546;2022-10-28T05:04:36;2.70;;;1.70;;
9178;SDS011;4624;48.126;11.546;2022-10-28T05:07:04;3.43;;;1.30;;
9178;SDS011;4624;48.126;11.546;2022-10-28T05:09:31;5.23;;;1.63;;
9178;SDS011;4624;48.126;11.546;2022-10-28T05:11:58;4.77;;;2.17;;
9178;SDS011;4624;48.126;11.546;2022-10-28T05:14:24;13.13;;;7.80;;
9178;SDS011;4624;48.126;11.546;2022-10-28T05:16:51;4.90;;;2.20;;
9178;SDS011;4624;48.126;11.546;2022-10-28T05:19:18;6.17;;;2.60;;
9178;SDS011;4624;48.126;11.546;2022-10-28T05:21:44;4.37;;;1.57;;
9178;SDS011;4624;48.126;11.546;2022-10-28T05:24:13;6.93;;;1.83;;
9178;SDS011;4624;48.126;11.546;2022-10-28T05:26:39;3.20;;;1.63;;
9178;SDS011;4624;48.126;11.546;2022-10-28T05:29:06;4.93;;;1.80;;
9178;SDS011;4624;48.126;11.546;2022-10-28T05:31:33;3.93;;;1.73;;
9178;SDS011;4624;48.126;11.546;2022-10-28T05:33:59;3.33;;;1.73;;
9178;SDS011;4624;48.126;11.546;2022-10-28T05:36:26;4.13;;;1.70;;
9178;SDS011;4624;48.126;11.546;2022-10-28T05:38:53;6.60;;;1.73;;
9178;SDS011;4624;48.126;11.546;2022-10-28T05:41:21;3.00;;;2.17;;
9178;SDS011;4624;48.126;11.546;2022-10-28T05:43:48;3.23;;;2.50;;
9178;SDS011;4624;48.126;11.546;2022-10-28T05:46:15;6.80;;;2.47;;
9178;SDS011;4624;48.126;11.546;2022-10-28T05:48:42;6.20;;;2.63;;
9178;SDS011;4624;48.126;11.546;2022-10-28T05:51:09;5.47;;;1.93;;
9178;SDS011;4624;48.126;11.546;2022-10-28T05:53:36;5.90;;;2.00;;
9178;SDS011;4624;48.126;11.546;2022-10-28T05:56:02;5.63;;;2.33;;
9178;SDS011;4624;48.126;11.546;2022-10-28T05:58:31;4.10;;;1.80;;
9178;SDS011;4624;48.126;11.546;2022-10-28T06:00:58;4.37;;;1.40;;
9178;SDS011;4624;48.126;11.546;2022-10-28T06:03:24;3.43;;;1.60;;
9178;SDS011;4624;48.126;11.546;2022-10-28T06:05:51;7.40;;;1.87;;
9178;SDS011;4624;48.126;11.546;2022-10-28T06:08:18;3.77;;;1.40;;
9178;SDS011;4624;48.126;11.546;2022-10-28T06:10:48;2.90;;;1.43;;
9178;SDS011;4624;48.126;11.546;2022-10-28T06:13:16;2.03;;;1.33;;
9178;SDS011;4624;48.126;11.546;2022-10-28T06:15:49;4.60;;;1.93;;
9178;SDS011;4624;48.126;11.546;2022-10-28T06:18:16;5.30;;;2.17;;
9178;SDS011;4624;48.126;11.546;2022-10-28T06:20:42;2.43;;;1.77;;
9178;SDS011;4624;48.126;11.546;2022-10-28T06:23:09;4.90;;;1.80;;
9178;SDS011;4624;48.126;11.546;2022-10-28T06:25:36;6.20;;;1.87;;
9178;SDS011;4624;48.126;11.546;2022-10-28T06:28:03;8.47;;;2.30;;
9178;SDS011;4624;48.126;11.546;2022-10-28T06:30:31;6.17;;;2.00;;
9178;SDS011;4624;48.126;11.546;2022-10-28T06:33:00;6.93;;;2.50;;
9178;SDS011;4624;48.126;11.546;2022-10-28T06:35:26;4.90;;;2.17;;
9178;SDS011;4624;48.126;11.546;2022-10-28T06:37:53;6.93;;;2.33;;
9178;SDS011;4624;48.126;11.546;2022-10-28T06:40:21;3.20;;;1.90;;
9178;SDS011;4624;48.126;11.546;2022-10-28T06:42:48;5.30;;;1.80;;
9178;SDS011;4624;48.126;11.546;2022-10-28T06:45:21;4.00;;;1.63;;
9178;SDS011;4624;48.126;11.546;2022-10-28T06:47:48;4.07;;;1.60;;
9178;SDS011;4624;48.126;11.546;2022-10-28T06:50:16;9.73;;;2.70;;
9178;SDS011;4624;48.126;11.546;2022-10-28T06:52:43;2.80;;;1.87;;
9178;SDS011;4624;48.126;11.546;2022-10-28T06:55:09;7.60;;;1.97;;
9178;SDS011;4624;48.126;11.546;2022-10-28T06:57:36;3.10;;;1.87;;
9178;SDS011;4624;48.126;11.546;2022-10-28T07:00:03;6.50;;;1.83;;
9178;SDS011;4624;48.126;11.546;2022-10-28T07:02:31;6.50;;;2.20;;
9178;SDS011;4624;48.126;11.546;2022-10-28T07:04:57;5.20;;;2.60;;
9178;SDS011;4624;48.126;11.546;2022-10-28T07:07:25;5.73;;;2.80;;
9178;SDS011;4624;48.126;11.546;2022-10-28T07:09:52;8.53;;;3.20;;
9178;SDS011;4624;48.126;11.546;2022-10-28T07:12:19;7.73;;;4.20;;
9178;SDS011;4624;48.126;11.546;2022-10-28T07:14:46;9.30;;;4.80;;
9178;SDS011;4624;48.126;11.546;2022-10-28T07:17:12;9.17;;;5.37;;
9178;SDS011;4624;48.126;11.546;2022-10-28T07:19:39;9.43;;;6.07;;
9178;SDS011;4624;48.126;11.546;2022-10-28T07:22:06;13.10;;;8.70;;
9178;SDS011;4624;48.126;11.546;2022-10-28T07:24:34;11.27;;;8.10;;
9178;SDS011;4624;48.126;11.546;2022-10-28T07:27:00;9.27;;;6.47;;
9178;SDS011;4624;48.126;11.546;2022-10-28T07:29:27;8.10;;;5.90;;
9178;SDS011;4624;48.126;11.546;2022-10-28T07:31:54;7.97;;;4.70;;
9178;SDS011;4624;48.126;11.546;2022-10-28T07:34:21;8.47;;;4.40;;
9178;SDS011;4624;48.126;11.546;2022-10-28T07:36:48;7.10;;;3.70;;
9178;SDS011;4624;48.126;11.546;2022-10-28T07:39:15;14.60;;;4.13;;
9178;SDS011;4624;48.126;11.546;2022-10-28T07:41:43;12.37;;;4.70;;
9178;SDS011;4624;48.126;11.546;2022-10-28T07:44:10;13.07;;;3.97;;
9178;SDS011;4624;48.126;11.546;2022-10-28T07:46:37;6.17;;;3.30;;
9178;SDS011;4624;48.126;11.546;2022-10-28T07:49:04;11.47;;;4.77;;
9178;SDS011;4624;48.126;11.546;2022-10-28T07:51:31;13.00;;;3.97;;
9178;SDS011;4624;48.126;11.546;2022-10-28T07:53:57;14.35;;;3.40;;
9178;SDS011;4624;48.126;11.546;2022-10-28T07:56:24;15.35;;;3.47;;
9178;SDS011;4624;48.126;11.546;2022-10-28T07:58:53;13.63;;;4.40;;
9178;SDS011;4624;48.126;11.546;2022-10-28T08:01:20;14.18;;;4.72;;
9178;SDS011;4624;48.126;11.546;2022-10-28T08:03:46;11.05;;;4.88;;
9178;SDS011;4624;48.126;11.546;2022-10-28T08:06:15;28.50;;;6.22;;
9178;SDS011;4624;48.126;11.546;2022-10-28T08:08:44;21.83;;;6.07;;
9178;SDS011;4624;48.126;11.546;2022-10-28T08:11:12;14.88;;;5.75;;
9178;SDS011;4624;48.126;11.546;2022-10-28T08:13:40;14.40;;;4.70;;
9178;SDS011;4624;48.126;11.546;2022-10-28T08:16:09;21.60;;;5.63;;
9178;SDS011;4624;48.126;11.546;2022-10-28T08:18:36;16.20;;;5.93;;
9178;SDS011;4624;48.126;11.546;2022-10-28T08:21:04;16.52;;;7.45;;
9178;SDS011;4624;48.126;11.546;2022-10-28T08:23:32;19.40;;;4.60;;
9178;SDS011;4624;48.126;11.546;2022-10-28T08:25:59;7.60;;;3.05;;
9178;SDS011;4624;48.126;11.546;2022-10-28T08:28:26;9.82;;;3.33;;
9178;SDS011;4624;48.126;11.546;2022-10-28T08:30:58;11.40;;;3.13;;
9178;SDS011;4624;48.126;11.546;2022-10-28T08:33:27;5.20;;;1.73;;
9178;SDS011;4624;48.126;11.546;2022-10-28T08:35:53;5.38;;;1.48;;
9178;SDS011;4624;48.126;11.546;2022-10-28T08:38:20;4.72;;;1.40;;
9178;SDS011;4624;48.126;11.546;2022-10-28T08:40:50;4.65;;;1.10;;
9178;SDS011;4624;48.126;11.546;2022-10-28T08:43:24;2.28;;;0.93;;
9178;SDS011;4624;48.126;11.546;2022-10-28T08:45:58;2.20;;;1.27;;
9178;SDS011;4624;48.126;11.546;2022-10-28T08:48:29;1.45;;;0.90;;
9178;SDS011;4624;48.126;11.546;2022-10-28T08:50:58;1.08;;;0.75;;
9178;SDS011;4624;48.126;11.546;2022-10-28T08:53:31;3.17;;;1.15;;
9178;SDS011;4624;48.126;11.546;2022-10-28T08:56:04;3.78;;;1.00;;
9178;SDS011;4624;48.126;11.546;2022-10-28T08:58:38;3.65;;;1.10;;
9178;SDS011;4624;48.126;11.546;2022-10-28T09:01:09;3.15;;;0.80;;
9178;SDS011;4624;48.126;11.546;2022-10-28T09:03:45;3.90;;;1.40;;
9178;SDS011;4624;48.126;11.546;2022-10-28T09:06:17;2.33;;;1.00;;
9178;SDS011;4624;48.126;11.546;2022-10-28T09:08:45;3.70;;;1.60;;
9178;SDS011;4624;48.126;11.546;2022-10-28T09:11:20;3.55;;;1.50;;
9178;SDS011;4624;48.126;11.546;2022-10-28T09:14:09;3.20;;;1.52;;
9178;SDS011;4624;48.126;11.546;2022-10-28T09:16:44;4.82;;;2.60;;
9178;SDS011;4624;48.126;11.546;2022-10-28T09:19:15;3.30;;;1.38;;
9178;SDS011;4624;48.126;11.546;2022-10-28T09:21:55;2.20;;;1.42;;
9178;SDS011;4624;48.126;11.546;2022-10-28T09:24:37;4.00;;;1.83;;
9178;SDS011;4624;48.126;11.546;2022-10-28T09:27:10;3.97;;;1.17;;
9178;SDS011;4624;48.126;11.546;2022-10-28T09:29:46;4.68;;;1.58;;
9178;SDS011;4624;48.126;11.546;2022-10-28T09:32:20;3.58;;;1.40;;
9178;SDS011;4624;48.126;11.546;2022-10-28T09:34:55;4.07;;;1.40;;
9178;SDS011;4624;48.126;11.546;2022-10-28T09:37:26;4.68;;;1.73;;
9178;SDS011;4624;48.126;11.546;2022-10-28T09:40:00;3.38;;;1.45;;
9178;SDS011;4624;48.126;11.546;2022-10-28T09:42:38;6.32;;;1.63;;
9178;SDS011;4624;48.126;11.546;2022-10-28T09:45:10;4.32;;;1.02;;
9178;SDS011;4624;48.126;11.546;2022-10-28T09:47:43;2.35;;;1.17;;
9178;SDS011;4624;48.126;11.546;2022-10-28T09:50:17;2.88;;;0.80;;
9178;SDS011;4624;48.126;11.546;2022-10-28T09:52:48;5.78;;;1.20;;
9178;SDS011;4624;48.126;11.546;2022-10-28T09:55:21;4.70;;;0.98;;
9178;SDS011;4624;48.126;11.546;2022-10-28T09:57:48;3.30;;;1.15;;
9178;SDS011;4624;48.126;11.546;2022-10-28T10:00:16;4.97;;;1.25;;
9178;SDS011;4624;48.126;11.546;2022-10-28T10:02:43;5.78;;;1.25;;
9178;SDS011;4624;48.126;11.546;2022-10-28T10:05:10;4.13;;;1.17;;
9178;SDS011;4624;48.126;11.546;2022-10-28T10:07:42;3.58;;;1.17;;
9178;SDS011;4624;48.126;11.546;2022-10-28T10:10:12;4.85;;;1.00;;
9178;SDS011;4624;48.126;11.546;2022-10-28T10:12:41;3.65;;;1.13;;
9178;SDS011;4624;48.126;11.546;2022-10-28T10:15:12;2.60;;;1.10;;
9178;SDS011;4624;48.126;11.546;2022-10-28T10:17:52;2.97;;;0.80;;
9178;SDS011;4624;48.126;11.546;2022-10-28T10:20:22;2.03;;;0.80;;
9178;SDS011;4624;48.126;11.546;2022-10-28T10:22:50;3.45;;;0.73;;
9178;SDS011;4624;48.126;11.546;2022-10-28T10:25:21;2.13;;;0.80;;
9178;SDS011;4624;48.126;11.546;2022-10-28T10:27:50;3.70;;;0.73;;
9178;SDS011;4624;48.126;11.546;2022-10-28T10:30:20;3.75;;;1.17;;
9178;SDS011;4624;48.126;11.546;2022-10-28T10:32:48;1.85;;;0.80;;
9178;SDS011;4624;48.126;11.546;2022-10-28T10:35:18;2.88;;;0.68;;
9178;SDS011;4624;48.126;11.546;2022-10-28T10:37:48;1.55;;;0.82;;
9178;SDS011;4624;48.126;11.546;2022-10-28T10:40:18;1.95;;;0.75;;
9178;SDS011;4624;48.126;11.546;2022-10-28T10:42:48;1.58;;;0.82;;
9178;SDS011;4624;48.126;11.546;2022-10-28T10:45:20;3.08;;;1.00;;
9178;SDS011;4624;48.126;11.546;2022-10-28T10:47:51;2.00;;;0.70;;
9178;SDS011;4624;48.126;11.546;2022-10-28T10:50:32;2.78;;;0.90;;
9178;SDS011;4624;48.126;11.546;2022-10-28T10:53:01;2.80;;;1.08;;
9178;SDS011;4624;48.126;11.546;2022-10-28T10:55:34;0.73;;;0.50;;
9178;SDS011;4624;48.126;11.546;2022-10-28T10:58:03;2.90;;;0.63;;
9178;SDS011;4624;48.126;11.546;2022-10-28T11:00:34;1.25;;;0.70;;
9178;SDS011;4624;48.126;11.546;2022-10-28T11:03:02;1.90;;;0.57;;
9178;SDS011;4624;48.126;11.546;2022-10-28T11:05:30;1.73;;;0.68;;
9178;SDS011;4624;48.126;11.546;2022-10-28T11:07:57;3.17;;;0.93;;
9178;SDS011;4624;48.126;11.546;2022-10-28T11:10:29;2.42;;;1.20;;
9178;SDS011;4624;48.126;11.546;2022-10-28T11:13:00;1.83;;;0.88;;
9178;SDS011;4624;48.126;11.546;2022-10-28T11:15:29;3.63;;;1.05;;
9178;SDS011;4624;48.126;11.546;2022-10-28T11:17:58;1.02;;;0.70;;
9178;SDS011;4624;48.126;11.546;2022-10-28T11:20:27;3.42;;;0.68;;
9178;SDS011;4624;48.126;11.546;2022-10-28T11:23:11;2.85;;;1.00;;
9178;SDS011;4624;48.126;11.546;2022-10-28T11:25:51;4.70;;;1.00;;
9178;SDS011;4624;48.126;11.546;2022-10-28T11:28:25;2.05;;;0.80;;
9178;SDS011;4624;48.126;11.546;2022-10-28T11:31:09;0.80;;;0.60;;
9178;SDS011;4624;48.126;11.546;2022-10-28T11:33:52;2.83;;;0.88;;
9178;SDS011;4624;48.126;11.546;2022-10-28T11:36:35;0.88;;;0.50;;
9178;SDS011;4624;48.126;11.546;2022-10-28T11:39:14;4.25;;;0.57;;
9178;SDS011;4624;48.126;11.546;2022-10-28T11:42:04;1.15;;;0.70;;
9178;SDS011;4624;48.126;11.546;2022-10-28T11:44:44;1.63;;;0.60;;
9178;SDS011;4624;48.126;11.546;2022-10-28T11:47:27;1.58;;;0.57;;
9178;SDS011;4624;48.126;11.546;2022-10-28T11:50:16;2.22;;;0.60;;
9178;SDS011;4624;48.126;11.546;2022-10-28T11:53:03;2.75;;;1.00;;
9178;SDS011;4624;48.126;11.546;2022-10-28T11:55:52;2.47;;;0.70;;
9178;SDS011;4624;48.126;11.546;2022-10-28T11:58:27;2.95;;;0.70;;
9178;SDS011;4624;48.126;11.546;2022-10-28T12:01:07;4.05;;;0.93;;
9178;SDS011;4624;48.126;11.546;2022-10-28T12:06:43;3.45;;;0.82;;
9178;SDS011;4624;48.126;11.546;2022-10-28T12:09:20;2.63;;;0.63;;
9178;SDS011;4624;48.126;11.546;2022-10-28T12:11:55;2.03;;;0.77;;
9178;SDS011;4624;48.126;11.546;2022-10-28T12:14:30;1.80;;;0.85;;
9178;SDS011;4624;48.126;11.546;2022-10-28T12:17:09;4.00;;;0.80;;
9178;SDS011;4624;48.126;11.546;2022-10-28T12:19:42;1.48;;;0.50;;
9178;SDS011;4624;48.126;11.546;2022-10-28T12:22:11;1.13;;;0.50;;
9178;SDS011;4624;48.126;11.546;2022-10-28T12:24:47;0.95;;;0.52;;
9178;SDS011;4624;48.126;11.546;2022-10-28T12:27:16;1.40;;;0.55;;
9178;SDS011;4624;48.126;11.546;2022-10-28T12:29:47;0.85;;;0.50;;
9178;SDS011;4624;48.126;11.546;2022-10-28T12:32:20;2.28;;;0.70;;
9178;SDS011;4624;48.126;11.546;2022-10-28T12:34:52;3.05;;;0.50;;
9178;SDS011;4624;48.126;11.546;2022-10-28T12:37:24;3.10;;;0.55;;
9178;SDS011;4624;48.126;11.546;2022-10-28T12:39:58;0.80;;;0.35;;
9178;SDS011;4624;48.126;11.546;2022-10-28T12:42:30;2.00;;;0.40;;
9178;SDS011;4624;48.126;11.546;2022-10-28T12:45:00;5.97;;;0.70;;
9178;SDS011;4624;48.126;11.546;2022-10-28T12:47:34;1.67;;;0.70;;
9178;SDS011;4624;48.126;11.546;2022-10-28T12:50:08;1.58;;;0.50;;
9178;SDS011;4624;48.126;11.546;2022-10-28T12:52:43;3.00;;;0.60;;
9178;SDS011;4624;48.126;11.546;2022-10-28T12:55:26;3.08;;;0.65;;
9178;SDS011;4624;48.126;11.546;2022-10-28T12:57:59;2.88;;;0.68;;
9178;SDS011;4624;48.126;11.546;2022-10-28T13:00:31;0.50;;;0.50;;
9178;SDS011;4624;48.126;11.546;2022-10-28T13:03:02;1.33;;;0.60;;
9178;SDS011;4624;48.126;11.546;2022-10-28T13:05:32;1.38;;;0.70;;
9178;SDS011;4624;48.126;11.546;2022-10-28T13:08:11;1.60;;;0.55;;
9178;SDS011;4624;48.126;11.546;2022-10-28T13:11:11;2.58;;;0.50;;
9178;SDS011;4624;48.126;11.546;2022-10-28T13:13:57;1.08;;;0.52;;
9178;SDS011;4624;48.126;11.546;2022-10-28T13:16:35;1.08;;;0.68;;
9178;SDS011;4624;48.126;11.546;2022-10-28T13:19:16;1.35;;;0.68;;
9178;SDS011;4624;48.126;11.546;2022-10-28T13:22:08;2.60;;;0.70;;
9178;SDS011;4624;48.126;11.546;2022-10-28T13:24:46;1.63;;;0.85;;
9178;SDS011;4624;48.126;11.546;2022-10-28T13:27:21;0.90;;;0.70;;
9178;SDS011;4624;48.126;11.546;2022-10-28T13:29:48;3.72;;;0.60;;
9178;SDS011;4624;48.126;11.546;2022-10-28T13:32:23;2.50;;;0.88;;
9178;SDS011;4624;48.126;11.546;2022-10-28T13:35:00;1.48;;;0.90;;
9178;SDS011;4624;48.126;11.546;2022-10-28T13:37:37;2.30;;;0.60;;
9178;SDS011;4624;48.126;11.546;2022-10-28T13:40:05;2.50;;;0.98;;
9178;SDS011;4624;48.126;11.546;2022-10-28T13:42:45;4.28;;;1.00;;
9178;SDS011;4624;48.126;11.546;2022-10-28T13:51:32;2.80;;;1.00;;
9178;SDS011;4624;48.126;11.546;2022-10-28T13:54:21;1.38;;;0.75;;
9178;SDS011;4624;48.126;11.546;2022-10-28T13:56:50;4.13;;;0.70;;
9178;SDS011;4624;48.126;11.546;2022-10-28T13:59:24;3.38;;;0.80;;
9178;SDS011;4624;48.126;11.546;2022-10-28T14:04:57;4.00;;;0.70;;
9178;SDS011;4624;48.126;11.546;2022-10-28T14:07:27;3.65;;;0.70;;
9178;SDS011;4624;48.126;11.546;2022-10-28T14:09:57;1.92;;;0.50;;
9178;SDS011;4624;48.126;11.546;2022-10-28T14:12:39;3.65;;;0.70;;
9178;SDS011;4624;48.126;11.546;2022-10-28T14:15:18;3.20;;;0.77;;
9178;SDS011;4624;48.126;11.546;2022-10-28T14:17:50;2.28;;;0.90;;
9178;SDS011;4624;48.126;11.546;2022-10-28T14:20:28;3.20;;;0.75;;
9178;SDS011;4624;48.126;11.546;2022-10-28T14:22:59;3.88;;;1.00;;
9178;SDS011;4624;48.126;11.546;2022-10-28T14:26:02;1.23;;;0.90;;
9178;SDS011;4624;48.126;11.546;2022-10-28T14:31:18;3.33;;;0.85;;
9178;SDS011;4624;48.126;11.546;2022-10-28T14:33:50;2.85;;;1.10;;
9178;SDS011;4624;48.126;11.546;2022-10-28T14:37:11;4.53;;;0.90;;
9178;SDS011;4624;48.126;11.546;2022-10-28T14:39:55;3.42;;;0.93;;
9178;SDS011;4624;48.126;11.546;2022-10-28T14:42:39;4.25;;;1.45;;
9178;SDS011;4624;48.126;11.546;2022-10-28T14:45:30;2.97;;;1.20;;
9178;SDS011;4624;48.126;11.546;2022-10-28T14:48:17;2.78;;;1.40;;
9178;SDS011;4624;48.126;11.546;2022-10-28T14:51:12;4.25;;;1.17;;
9178;SDS011;4624;48.126;11.546;2022-10-28T14:53:41;4.70;;;1.20;;
9178;SDS011;4624;48.126;11.546;2022-10-28T14:56:11;5.57;;;0.90;;
9178;SDS011;4624;48.126;11.546;2022-10-28T14:58:46;2.85;;;1.10;;
9178;SDS011;4624;48.126;11.546;2022-10-28T15:01:20;2.20;;;1.08;;
9178;SDS011;4624;48.126;11.546;2022-10-28T15:03:50;4.28;;;1.10;;
9178;SDS011;4624;48.126;11.546;2022-10-28T15:06:27;3.28;;;1.00;;
9178;SDS011;4624;48.126;11.546;2022-10-28T15:09:02;5.40;;;1.10;;
9178;SDS011;4624;48.126;11.546;2022-10-28T15:11:31;4.22;;;1.48;;
9178;SDS011;4624;48.126;11.546;2022-10-28T15:14:11;5.80;;;1.33;;
9178;SDS011;4624;48.126;11.546;2022-10-28T15:16:44;4.78;;;1.50;;
9178;SDS011;4624;48.126;11.546;2022-10-28T15:19:13;3.53;;;1.02;;
9178;SDS011;4624;48.126;11.546;2022-10-28T15:21:43;1.38;;;1.25;;
9178;SDS011;4624;48.126;11.546;2022-10-28T15:24:23;3.35;;;1.00;;
9178;SDS011;4624;48.126;11.546;2022-10-28T15:26:51;2.65;;;1.20;;
9178;SDS011;4624;48.126;11.546;2022-10-28T15:29:20;3.53;;;1.42;;
9178;SDS011;4624;48.126;11.546;2022-10-28T15:32:10;2.83;;;1.15;;
9178;SDS011;4624;48.126;11.546;2022-10-28T15:34:40;3.60;;;1.10;;
9178;SDS011;4624;48.126;11.546;2022-10-28T15:37:07;5.53;;;1.30;;
9178;SDS011;4624;48.126;11.546;2022-10-28T15:39:34;3.63;;;1.30;;
9178;SDS011;4624;48.126;11.546;2022-10-28T15:42:02;4.35;;;1.48;;
9178;SDS011;4624;48.126;11.546;2022-10-28T15:44:54;4.05;;;1.23;;